Time;durP1;ratioP1;P1;durP2;ratioP2;P2;SDS_P1;SDS_P2;PMS_P1;PMS_P2;Temp;Humidity;BMP_temperature;BMP_pressure;BME280_temperature;BME280_humidity;BME280_pressure;Samples;Min_cycle;Max_cycle;Signal;HPM_P1;HPM_P2
2022/08/02 00:01:23;;;;;;;2.88;1.75;;;;;;;20.61;48.17;96201.19;10363251;28;99213;-63
2022/08/02 00:06:26;;;;;;;2.30;1.80;;;;;;;20.39;48.20;96192.75;10368966;28;98869;-63
2022/08/02 00:11:29;;;;;;;3.72;1.77;;;;;;;20.40;48.62;96202.31;10366388;28;97168;-63
2022/08/02 00:16:33;;;;;;;2.33;1.50;;;;;;;20.38;47.72;96196.41;10367253;28;97750;-64
2022/08/02 00:21:40;;;;;;;1.90;1.58;;;;;;;20.30;48.42;96205.41;10370112;28;98476;-64
2022/08/02 00:26:43;;;;;;;3.03;1.63;;;;;;;20.31;49.48;96211.53;10376507;28;98460;-64
2022/08/02 00:31:47;;;;;;;2.22;1.75;;;;;;;20.21;49.28;96206.69;10371897;28;98586;-63
2022/08/02 00:36:50;;;;;;;2.30;1.70;;;;;;;19.97;49.54;96209.00;10374685;28;98524;-65
2022/08/02 00:41:53;;;;;;;3.47;1.73;;;;;;;19.93;49.37;96218.38;10374230;28;97596;-63
2022/08/02 00:46:58;;;;;;;2.20;1.80;;;;;;;20.01;49.05;96212.06;10374105;28;96973;-63
2022/08/02 00:52:01;;;;;;;3.28;1.92;;;;;;;19.98;49.44;96213.25;10373394;28;97200;-63
2022/08/02 00:57:04;;;;;;;3.08;1.65;;;;;;;19.87;49.85;96205.97;10372292;28;98841;-67
2022/08/02 01:02:08;;;;;;;2.60;2.05;;;;;;;19.84;50.59;96210.88;10374019;28;96829;-63
2022/08/02 01:07:13;;;;;;;3.63;2.50;;;;;;;19.75;49.70;96212.88;10373730;28;98384;-63
2022/08/02 01:12:16;;;;;;;3.80;2.20;;;;;;;19.82;49.91;96216.38;10374017;28;98776;-62
2022/08/02 01:17:30;;;;;;;3.03;2.03;;;;;;;19.83;50.03;96215.34;10373084;28;97658;-65
2022/08/02 01:22:54;;;;;;;2.10;1.70;;;;;;;19.80;49.30;96210.41;10372240;28;98007;-63
2022/08/02 01:28:28;;;;;;;2.30;1.90;;;;;;;19.72;49.57;96215.94;10370292;28;99096;-63
2022/08/02 01:33:39;;;;;;;3.05;2.20;;;;;;;19.71;50.00;96223.06;10371328;28;97186;-63
2022/08/02 01:38:46;;;;;;;2.25;1.88;;;;;;;19.60;50.77;96219.19;10364834;28;98882;-63
2022/08/02 01:43:53;;;;;;;4.13;2.38;;;;;;;19.36;51.59;96225.94;10366420;28;98133;-63
2022/08/02 01:48:59;;;;;;;3.30;2.10;;;;;;;19.32;51.67;96218.59;10364094;28;98947;-63
2022/08/02 01:54:02;;;;;;;2.88;2.20;;;;;;;19.28;52.25;96227.97;10368131;28;98863;-64
2022/08/02 01:59:10;;;;;;;3.90;2.55;;;;;;;19.06;52.29;96214.91;10367922;28;98386;-64
2022/08/02 02:04:15;;;;;;;3.20;2.17;;;;;;;19.00;51.69;96219.19;10371296;28;100413;-63
2022/08/02 02:09:20;;;;;;;3.97;2.55;;;;;;;19.01;52.30;96222.63;10364818;28;99034;-63
2022/08/02 02:14:25;;;;;;;3.75;2.60;;;;;;;19.04;52.41;96214.31;10370621;28;98395;-63
2022/08/02 02:19:29;;;;;;;2.47;2.28;;;;;;;19.03;52.46;96205.53;10368126;28;97932;-68
2022/08/02 02:24:32;;;;;;;3.93;2.73;;;;;;;18.94;52.23;96193.50;10369366;28;98280;-63
2022/08/02 02:29:43;;;;;;;2.65;2.30;;;;;;;18.91;53.20;96201.03;10370060;28;98816;-62
2022/08/02 02:34:50;;;;;;;4.72;2.47;;;;;;;18.73;53.09;96201.59;10370510;28;98416;-63
2022/08/02 02:39:56;;;;;;;3.55;2.55;;;;;;;18.59;53.38;96188.31;10371469;28;97701;-63
2022/08/02 02:45:03;;;;;;;5.13;2.53;;;;;;;18.60;54.14;96194.41;10365313;28;97893;-63
2022/08/02 02:50:07;;;;;;;4.30;2.97;;;;;;;18.55;54.55;96200.31;10369002;28;98529;-63
2022/08/02 02:55:11;;;;;;;3.20;2.25;;;;;;;18.46;54.51;96196.19;10366345;28;96826;-63
2022/08/02 03:00:15;;;;;;;2.88;2.55;;;;;;;18.33;55.23;96194.34;10373499;28;98149;-67
2022/08/02 03:05:18;;;;;;;3.35;2.58;;;;;;;18.08;55.44;96213.34;10363804;28;97238;-63
2022/08/02 03:10:21;;;;;;;5.47;2.20;;;;;;;17.92;56.25;96208.34;10363378;28;99048;-63
2022/08/02 03:15:27;;;;;;;2.42;2.20;;;;;;;17.86;57.21;96211.78;10368498;28;98660;-62
2022/08/02 03:20:30;;;;;;;3.88;2.50;;;;;;;17.97;56.72;96207.78;10360856;28;97777;-63
2022/08/02 03:25:33;;;;;;;3.58;2.72;;;;;;;17.95;56.81;96210.63;10369568;28;97663;-62
2022/08/02 03:30:37;;;;;;;4.18;2.58;;;;;;;17.91;57.04;96209.38;10372639;28;98744;-62
2022/08/02 03:35:42;;;;;;;4.60;2.65;;;;;;;17.94;56.24;96211.63;10366764;28;98842;-62
2022/08/02 03:40:46;;;;;;;3.80;2.45;;;;;;;17.93;56.81;96210.00;10376464;28;96860;-63
2022/08/02 03:45:51;;;;;;;3.35;2.35;;;;;;;17.93;57.31;96210.00;10376296;28;97104;-63
2022/08/02 03:50:56;;;;;;;2.95;2.47;;;;;;;17.91;57.37;96206.75;10371998;28;96865;-63
2022/08/02 03:55:59;;;;;;;3.13;2.20;;;;;;;17.90;57.63;96208.56;10362706;28;98192;-62
2022/08/02 04:01:03;;;;;;;2.72;2.40;;;;;;;17.91;56.87;96196.97;10357840;28;98511;-67
2022/08/02 04:06:06;;;;;;;2.80;2.47;;;;;;;17.94;56.83;96195.75;10369234;28;97640;-63
2022/08/02 04:16:41;;;;;;;4.20;2.47;;;;;;;17.94;57.55;96201.03;10365955;28;97514;-63
2022/08/02 04:21:46;;;;;;;2.83;2.50;;;;;;;17.90;57.38;96205.09;10358084;28;97721;-64
2022/08/02 04:26:55;;;;;;;6.40;2.80;;;;;;;17.80;57.70;96204.59;10364693;28;98084;-62
2022/08/02 04:32:07;;;;;;;3.10;2.40;;;;;;;17.61;58.37;96206.09;10365243;28;97801;-62
2022/08/02 04:37:12;;;;;;;3.60;2.65;;;;;;;17.57;58.65;96205.66;10363047;28;97357;-62
2022/08/02 04:42:20;;;;;;;3.10;2.47;;;;;;;17.64;58.64;96206.53;10364834;28;98407;-63
2022/08/02 04:47:25;;;;;;;6.28;2.50;;;;;;;17.67;58.52;96206.16;10364952;28;99053;-62
2022/08/02 04:52:48;;;;;;;4.33;2.47;;;;;;;17.75;58.41;96207.81;10369696;28;96782;-62
2022/08/02 04:57:56;;;;;;;5.78;2.70;;;;;;;17.82;58.58;96216.63;10369649;28;97005;-62
2022/08/02 05:03:01;;;;;;;4.30;2.65;;;;;;;17.90;58.97;96219.13;10383164;28;96834;-62
2022/08/02 05:08:04;;;;;;;2.80;2.50;;;;;;;17.97;58.99;96227.09;10371939;28;97359;-62
2022/08/02 05:13:07;;;;;;;6.95;2.83;;;;;;;18.01;58.72;96224.88;10363797;28;97108;-66
2022/08/02 05:18:11;;;;;;;3.50;2.70;;;;;;;17.95;59.25;96223.84;10369961;28;98648;-62
2022/08/02 05:23:14;;;;;;;3.20;2.58;;;;;;;18.00;59.23;96229.34;10369252;28;96882;-63
2022/08/02 05:28:17;;;;;;;4.10;2.67;;;;;;;18.09;58.71;96233.47;10371127;28;99120;-63
2022/08/02 05:33:23;;;;;;;6.05;2.85;;;;;;;18.15;59.55;96237.19;10361728;28;98553;-64
2022/08/02 05:38:29;;;;;;;3.45;2.83;;;;;;;18.28;59.30;96241.72;10369529;28;97589;-62
2022/08/02 05:43:33;;;;;;;4.22;2.60;;;;;;;18.52;58.15;96237.75;10369525;28;97708;-62
2022/08/02 05:48:37;;;;;;;3.20;2.65;;;;;;;18.69;57.36;96243.50;10375760;28;98903;-62
2022/08/02 05:53:46;;;;;;;2.88;2.38;;;;;;;18.86;57.41;96243.97;10377399;28;98595;-63
2022/08/02 05:58:53;;;;;;;5.10;2.75;;;;;;;19.02;57.06;96237.53;10378886;28;97097;-63
2022/08/02 06:04:00;;;;;;;4.65;2.45;;;;;;;19.19;58.68;96238.78;10373180;28;99045;-62
2022/08/02 06:09:05;;;;;;;4.25;2.40;;;;;;;19.29;56.70;96237.53;10379035;28;98835;-62
2022/08/02 06:14:08;;;;;;;3.20;2.40;;;;;;;19.40;56.82;96236.94;10377679;28;97232;-63
2022/08/02 06:19:13;;;;;;;3.25;2.30;;;;;;;19.54;56.18;96238.59;10375820;28;96834;-62
2022/08/02 06:24:18;;;;;;;5.57;2.85;;;;;;;19.73;57.48;96230.81;10378147;28;98456;-62
2022/08/02 06:29:21;;;;;;;3.45;2.70;;;;;;;19.87;56.82;96232.47;10372740;28;98442;-62
2022/08/02 06:34:26;;;;;;;5.67;2.87;;;;;;;20.04;56.19;96232.03;10370648;28;96946;-62
2022/08/02 06:39:35;;;;;;;3.85;3.00;;;;;;;20.22;56.48;96231.34;10374976;28;96899;-62
2022/08/02 06:44:38;;;;;;;3.95;2.47;;;;;;;20.21;55.27;96219.94;10379494;28;97418;-65
2022/08/02 06:49:55;;;;;;;3.73;3.20;;;;;;;20.28;54.93;96228.69;10367254;28;98948;-63
2022/08/02 06:54:59;;;;;;;6.05;3.08;;;;;;;20.37;55.83;96214.19;10368665;28;96892;-61
2022/08/02 07:00:08;;;;;;;3.50;2.70;;;;;;;20.51;55.50;96206.16;10376581;28;96892;-61
2022/08/02 07:05:12;;;;;;;5.43;3.00;;;;;;;20.67;54.95;96213.63;10378342;28;96857;-62
2022/08/02 07:10:15;;;;;;;3.97;2.80;;;;;;;20.80;54.78;96220.75;10378510;28;97743;-62
2022/08/02 07:15:18;;;;;;;5.88;3.10;;;;;;;20.95;54.84;96220.47;10378454;28;96895;-61
2022/08/02 07:20:22;;;;;;;4.40;2.92;;;;;;;21.11;55.49;96217.28;10378310;28;97054;-61
2022/08/02 07:25:25;;;;;;;4.50;2.53;;;;;;;21.18;54.96;96211.94;10375246;28;96764;-62
2022/08/02 07:30:48;;;;;;;3.03;2.60;;;;;;;21.37;54.37;96223.44;10377831;28;96764;-61
2022/08/02 07:35:52;;;;;;;3.08;2.40;;;;;;;21.44;54.14;96215.41;10371804;28;96786;-62
2022/08/02 07:40:56;;;;;;;3.83;2.50;;;;;;;21.62;54.53;96212.03;10378103;28;96643;-61
2022/08/02 07:45:59;;;;;;;3.35;2.38;;;;;;;21.76;54.10;96213.53;10377331;28;96840;-61
2022/08/02 07:51:04;;;;;;;4.27;2.33;;;;;;;21.85;53.75;96206.09;10377542;28;96754;-61
2022/08/02 07:56:07;;;;;;;2.67;2.30;;;;;;;21.96;53.93;96196.56;10370497;28;96769;-62
2022/08/02 08:01:09;;;;;;;4.80;2.63;;;;;;;22.14;53.77;96193.91;10375000;28;97030;-62
2022/08/02 08:06:14;;;;;;;2.92;2.33;;;;;;;22.32;53.21;96184.28;10377147;28;96741;-61
2022/08/02 08:11:17;;;;;;;4.80;2.38;;;;;;;22.52;52.86;96178.75;10377140;28;97154;-62
2022/08/02 08:16:21;;;;;;;2.90;2.38;;;;;;;22.73;52.48;96169.47;10354052;28;98922;-61
2022/08/02 08:21:25;;;;;;;2.88;2.47;;;;;;;22.85;52.46;96172.16;10377182;28;96770;-61
2022/08/02 08:26:27;;;;;;;;;;;;;;;22.99;52.17;96173.59;10375225;28;96913;-63
2022/08/02 08:31:30;;;;;;;3.33;2.58;;;;;;;23.18;51.59;96163.66;10375529;28;96935;-62
2022/08/02 08:36:34;;;;;;;5.00;2.60;;;;;;;23.37;50.98;96173.22;10366293;28;96895;-61
2022/08/02 08:41:37;;;;;;;;;;;;;;;23.49;50.89;96167.09;10373285;28;97236;-61
2022/08/02 08:46:42;;;;;;;4.97;2.63;;;;;;;23.61;50.35;96162.59;10380034;28;97058;-63
2022/08/02 08:51:47;;;;;;;2.85;2.55;;;;;;;23.72;50.07;96161.78;10382506;28;96825;-61
2022/08/02 08:56:51;;;;;;;3.10;2.30;;;;;;;23.87;50.08;96163.16;10380236;28;96790;-61
2022/08/02 09:01:55;;;;;;;4.43;2.65;;;;;;;23.98;49.71;96167.66;10382097;28;96832;-61
2022/08/02 09:07:00;;;;;;;2.20;1.88;;;;;;;24.07;48.81;96168.13;10382684;28;97351;-62
2022/08/02 09:12:13;;;;;;;2.47;2.20;;;;;;;24.14;48.95;96163.50;10382866;28;96867;-61
2022/08/02 09:17:18;;;;;;;3.45;2.40;;;;;;;24.32;48.55;96165.19;10382429;28;98307;-61
2022/08/02 09:22:24;;;;;;;4.43;2.65;;;;;;;24.45;48.40;96164.09;10382333;28;96761;-61
2022/08/02 09:27:35;;;;;;;4.45;2.40;;;;;;;24.49;47.60;96171.41;10377682;28;98286;-63
2022/08/02 09:32:45;;;;;;;2.40;2.20;;;;;;;24.64;47.41;96170.88;10370549;28;98018;-61
2022/08/02 09:37:49;;;;;;;2.60;2.28;;;;;;;24.79;46.88;96177.56;10374228;28;96824;-62
2022/08/02 09:42:58;;;;;;;2.83;2.45;;;;;;;24.85;46.93;96164.09;10381603;28;96877;-61
2022/08/02 09:48:02;;;;;;;3.10;2.28;;;;;;;24.93;46.35;96164.75;10381415;28;96930;-62
2022/08/02 09:53:11;;;;;;;5.13;2.10;;;;;;;24.95;46.80;96160.75;10381525;28;96781;-62
2022/08/02 09:58:18;;;;;;;3.40;2.03;;;;;;;24.92;46.20;96153.22;10374670;28;96776;-63
2022/08/02 10:03:22;;;;;;;2.80;2.45;;;;;;;24.89;46.19;96148.38;10381054;28;96940;-61
2022/08/02 10:08:35;;;;;;;3.13;1.98;;;;;;;25.00;46.36;96166.19;10380949;28;97042;-62
2022/08/02 10:13:38;;;;;;;3.05;2.17;;;;;;;25.12;45.61;96147.44;10364643;28;96764;-63
2022/08/02 10:18:41;;;;;;;5.10;2.27;;;;;;;25.25;45.53;96141.78;10379645;28;96839;-62
2022/08/02 10:23:48;;;;;;;2.53;2.10;;;;;;;25.43;45.57;96142.56;10380456;28;96757;-64
2022/08/02 10:28:53;;;;;;;3.33;2.00;;;;;;;25.64;44.76;96133.00;10366847;28;96828;-62
2022/08/02 10:33:59;;;;;;;2.85;2.35;;;;;;;25.74;45.05;96127.81;10379784;28;96961;-62
2022/08/02 10:39:05;;;;;;;2.85;2.08;;;;;;;25.97;44.48;96126.75;10379706;28;96760;-62
2022/08/02 10:44:08;;;;;;;2.53;2.10;;;;;;;26.08;43.93;96116.97;10379633;28;97614;-62
2022/08/02 10:49:28;;;;;;;3.70;2.40;;;;;;;26.16;44.18;96115.75;10373042;28;96757;-64
2022/08/02 10:54:47;;;;;;;2.75;2.20;;;;;;;26.31;43.26;96110.59;10361312;28;98582;-62
2022/08/02 10:59:52;;;;;;;4.88;2.30;;;;;;;26.37;43.09;96109.59;10378968;28;96861;-62
2022/08/02 11:05:05;;;;;;;2.53;2.10;;;;;;;26.43;42.89;96104.28;10379392;28;96859;-61
2022/08/02 11:10:29;;;;;;;2.95;2.10;;;;;;;26.45;43.44;96100.31;10377352;28;97110;-62
2022/08/02 11:15:49;;;;;;;3.30;2.15;;;;;;;26.62;42.47;96092.16;10378896;28;96790;-62
2022/08/02 11:21:23;;;;;;;2.35;2.15;;;;;;;26.71;41.70;96082.63;10374665;28;98741;-62
2022/08/02 11:26:45;;;;;;;;;;;;;;;26.72;42.21;96081.53;10374575;28;97405;-62
2022/08/02 11:31:48;;;;;;;2.90;2.20;;;;;;;26.98;41.26;96081.78;10353104;28;98466;-64
2022/08/02 11:36:52;;;;;;;2.70;2.07;;;;;;;27.23;40.77;96073.13;10377618;28;97319;-64
2022/08/02 11:41:59;;;;;;;2.97;2.00;;;;;;;27.23;40.37;96070.47;10378108;28;96806;-63
2022/08/02 11:47:03;;;;;;;3.60;2.03;;;;;;;27.42;40.07;96062.81;10378085;28;96754;-62
2022/08/02 11:52:09;;;;;;;2.88;1.90;;;;;;;27.57;40.17;96056.69;10377643;28;96850;-63
2022/08/02 11:57:16;;;;;;;3.80;2.30;;;;;;;27.79;39.83;96059.25;10356228;28;96909;-62
2022/08/02 12:02:25;;;;;;;4.07;2.03;;;;;;;28.16;38.92;96058.31;10376619;28;96817;-62
2022/08/02 12:07:32;;;;;;;3.65;2.10;;;;;;;28.21;38.67;96057.53;10374472;28;96859;-62
2022/08/02 12:12:49;;;;;;;2.10;1.80;;;;;;;28.33;38.41;96057.31;10373968;28;96800;-62
2022/08/02 12:23:14;;;;;;;4.35;2.15;;;;;;;28.70;38.40;96042.88;10384312;28;96900;-62
2022/08/02 12:28:21;;;;;;;3.03;2.17;;;;;;;28.58;38.45;96043.91;10380994;28;96818;-65
2022/08/02 12:33:27;;;;;;;5.60;2.03;;;;;;;28.74;37.59;96044.75;10383656;28;96783;-62
2022/08/02 12:38:30;;;;;;;2.78;2.10;;;;;;;28.78;37.73;96048.50;10384125;28;96886;-62
2022/08/02 12:43:43;;;;;;;5.00;2.20;;;;;;;29.07;37.30;96039.09;10383622;28;96960;-62
2022/08/02 12:48:46;;;;;;;2.50;2.10;;;;;;;29.10;37.38;96034.00;10367805;28;96793;-63
2022/08/02 12:54:14;;;;;;;3.08;1.90;;;;;;;29.48;36.58;96022.91;10382492;28;96777;-63
2022/08/02 12:59:35;;;;;;;2.47;1.92;;;;;;;29.74;35.89;96029.81;10382853;28;98064;-62
2022/08/02 13:04:41;;;;;;;2.67;2.20;;;;;;;29.84;35.73;96028.19;10383142;28;96779;-62
2022/08/02 13:09:52;;;;;;;3.05;1.67;;;;;;;29.95;35.66;96032.44;10382802;28;96728;-62
2022/08/02 13:15:07;;;;;;;2.40;2.00;;;;;;;30.25;35.28;96019.91;10382674;28;96793;-63
2022/08/02 13:20:30;;;;;;;3.42;1.90;;;;;;;29.87;35.51;96014.97;10382793;28;96786;-62
2022/08/02 13:25:33;;;;;;;1.80;1.70;;;;;;;30.06;35.36;96015.16;10371432;28;98676;-62
2022/08/02 13:30:38;;;;;;;2.75;1.92;;;;;;;30.14;35.29;96002.97;10370468;28;96812;-62
2022/08/02 13:35:41;;;;;;;4.35;2.10;;;;;;;30.58;34.92;96002.19;10381520;28;96803;-63
2022/08/02 13:46:08;;;;;;;3.72;2.22;;;;;;;30.94;34.10;96003.81;10372997;28;97178;-62
2022/08/02 13:51:12;;;;;;;4.05;1.90;;;;;;;31.25;33.84;95996.22;10381143;28;97596;-63
2022/08/02 13:56:16;;;;;;;1.77;1.65;;;;;;;31.39;33.27;95982.88;10381498;28;96822;-64
2022/08/02 14:01:20;;;;;;;2.85;1.80;;;;;;;31.65;32.98;95987.97;10381379;28;96734;-62
2022/08/02 14:06:24;;;;;;;2.92;1.63;;;;;;;31.84;32.46;95980.72;10360283;28;98730;-63
2022/08/02 14:11:26;;;;;;;5.63;2.00;;;;;;;32.19;32.29;95975.94;10375842;28;96813;-65
2022/08/02 14:16:31;;;;;;;2.33;1.75;;;;;;;32.16;31.94;95974.63;10379757;28;96982;-63
2022/08/02 14:21:35;;;;;;;2.63;1.92;;;;;;;32.66;31.65;95970.66;10381020;28;96860;-62
2022/08/02 14:26:50;;;;;;;3.17;1.63;;;;;;;33.42;31.05;95963.06;10380325;28;96771;-64
2022/08/02 14:31:54;;;;;;;3.08;2.05;;;;;;;34.72;28.98;95973.56;10379802;28;96799;-63
2022/08/02 14:36:57;;;;;;;2.15;1.90;;;;;;;35.77;27.83;95973.28;10379327;28;97001;-64
2022/08/02 14:42:00;;;;;;;3.00;1.90;;;;;;;36.89;27.05;95969.00;10378907;28;97988;-63
2022/08/02 14:47:04;;;;;;;2.83;1.80;;;;;;;37.83;25.47;95967.38;10370860;28;96894;-64
2022/08/02 14:52:07;;;;;;;2.72;1.80;;;;;;;38.48;24.39;95970.59;10379302;28;96858;-66
2022/08/02 14:57:11;;;;;;;4.15;1.70;;;;;;;38.68;24.01;95964.34;10379123;28;98641;-63
2022/08/02 15:02:15;;;;;;;2.00;1.70;;;;;;;39.29;23.57;95971.09;10378974;28;97152;-64
2022/08/02 15:07:18;;;;;;;3.03;1.60;;;;;;;39.76;22.67;95981.59;10379142;28;97215;-64
2022/08/02 15:12:21;;;;;;;1.85;1.70;;;;;;;40.12;22.69;95974.53;10379314;28;96766;-63
2022/08/02 15:17:25;;;;;;;2.90;1.85;;;;;;;40.31;21.69;95975.84;10377250;28;96736;-63
2022/08/02 15:22:28;;;;;;;2.53;1.88;;;;;;;40.46;21.82;95975.13;10371169;28;96810;-69
2022/08/02 15:27:32;;;;;;;1.73;1.50;;;;;;;40.70;21.00;95976.16;10370355;28;96994;-64
2022/08/02 15:32:40;;;;;;;1.50;1.40;;;;;;;40.82;21.32;95972.56;10374974;28;96824;-63
2022/08/02 15:37:55;;;;;;;2.10;1.35;;;;;;;41.21;20.77;95968.16;10378010;28;96734;-63
2022/08/02 15:42:58;;;;;;;2.60;1.50;;;;;;;41.29;20.01;95964.44;10378009;28;97125;-64
2022/08/02 15:48:03;;;;;;;2.10;1.50;;;;;;;41.60;20.09;95962.84;10372398;28;96956;-64
2022/08/02 15:53:05;;;;;;;1.52;1.20;;;;;;;41.38;20.05;95966.22;10377373;28;96753;-64
2022/08/02 15:58:08;;;;;;;1.95;1.45;;;;;;;41.51;20.36;95964.19;10377472;28;96732;-66
2022/08/02 16:03:21;;;;;;;2.65;1.45;;;;;;;41.17;20.40;95959.03;10366678;28;96797;-64
2022/08/02 16:08:25;;;;;;;3.22;1.55;;;;;;;40.89;20.15;95951.63;10374334;28;96782;-64
2022/08/02 16:18:57;;;;;;;1.73;1.63;;;;;;;41.04;19.89;95954.81;10376321;28;96758;-64
2022/08/02 16:24:01;;;;;;;2.63;1.45;;;;;;;41.30;19.73;95946.06;10376840;28;96812;-64
2022/08/02 16:29:05;;;;;;;3.30;1.50;;;;;;;41.41;19.51;95940.84;10370793;28;97107;-64
2022/08/02 16:34:09;;;;;;;2.50;1.50;;;;;;;41.23;19.65;95945.88;10375189;28;96902;-65
2022/08/02 16:39:12;;;;;;;1.67;1.40;;;;;;;40.90;19.92;95936.81;10376400;28;97826;-67
2022/08/02 16:44:15;;;;;;;1.67;1.48;;;;;;;40.90;19.88;95942.28;10359697;28;97006;-65
2022/08/02 16:49:39;;;;;;;1.70;1.25;;;;;;;41.25;19.87;95944.38;10360219;28;98911;-65
2022/08/02 16:55:02;;;;;;;2.58;1.30;;;;;;;41.71;18.97;95937.63;10367950;28;97058;-67
2022/08/02 17:00:14;;;;;;;2.00;1.48;;;;;;;41.54;19.65;95941.53;10364650;28;97797;-64
2022/08/02 17:05:19;;;;;;;1.40;1.30;;;;;;;41.70;19.17;95938.78;10366103;28;98588;-66
2022/08/02 17:10:22;;;;;;;1.58;1.20;;;;;;;42.21;18.56;95935.97;10371581;28;96851;-66
2022/08/02 17:15:25;;;;;;;2.38;1.30;;;;;;;42.12;18.62;95936.19;10372389;28;96846;-65
2022/08/02 17:20:49;;;;;;;2.00;1.30;;;;;;;41.63;18.92;95940.19;10366529;28;99636;-66
2022/08/02 17:25:52;;;;;;;1.63;1.40;;;;;;;41.21;18.93;95932.53;10366692;28;96849;-70
2022/08/02 17:30:57;;;;;;;3.78;1.20;;;;;;;40.99;19.00;95930.41;10371638;28;97577;-65
2022/08/02 17:36:01;;;;;;;3.50;1.70;;;;;;;40.55;19.99;95931.19;10374105;28;98413;-64
2022/08/02 17:41:05;;;;;;;3.10;2.13;;;;;;;40.77;19.31;95932.53;10378091;28;96893;-64
2022/08/02 17:46:16;;;;;;;4.18;2.85;;;;;;;40.40;19.82;95940.91;10378110;28;96874;-62
2022/08/02 17:51:20;;;;;;;3.30;1.40;;;;;;;39.86;20.73;95944.81;10371794;28;99098;-64
2022/08/02 17:56:44;;;;;;;2.03;1.15;;;;;;;39.47;20.28;95949.03;10367179;28;96904;-65
2022/08/02 18:01:47;;;;;;;1.35;0.98;;;;;;;38.03;21.14;95949.44;10369155;28;98783;-63
2022/08/02 18:06:59;;;;;;;3.10;1.50;;;;;;;36.27;22.74;95945.69;10365262;28;98222;-65
2022/08/02 18:12:06;;;;;;;1.90;1.27;;;;;;;35.01;23.83;95957.91;10365282;28;98020;-63
2022/08/02 18:17:09;;;;;;;3.55;1.30;;;;;;;34.02;25.43;95945.09;10373207;28;99080;-64
2022/08/02 18:22:13;;;;;;;3.10;1.27;;;;;;;33.14;26.13;95946.03;10367961;28;97864;-64
2022/08/02 18:27:17;;;;;;;1.75;1.00;;;;;;;32.40;25.97;95951.31;10367701;28;97614;-63
2022/08/02 18:32:22;;;;;;;3.15;1.65;;;;;;;31.76;26.67;95938.97;10368925;28;98159;-64
2022/08/02 18:37:47;;;;;;;1.63;0.90;;;;;;;31.18;26.41;95937.19;10365604;28;97863;-64
2022/08/02 18:42:58;;;;;;;2.80;0.93;;;;;;;30.70;27.19;95950.59;10365559;28;97429;-62
2022/08/02 18:48:06;;;;;;;1.23;0.80;;;;;;;30.40;26.99;95948.97;10362049;28;96955;-62
2022/08/02 18:53:10;;;;;;;3.63;2.53;;;;;;;30.00;27.31;95923.88;10363582;28;98616;-64
2022/08/02 18:58:15;;;;;;;3.75;1.60;;;;;;;29.84;28.01;95933.97;10365903;28;97512;-62
2022/08/02 19:03:22;;;;;;;1.58;1.05;;;;;;;29.63;28.44;95946.72;10368746;28;98566;-62
2022/08/02 19:08:26;;;;;;;;;;;;;;;29.46;28.31;95944.34;10366549;28;97768;-62
2022/08/02 19:13:29;;;;;;;;;;;;;;;29.40;28.00;95935.50;10369205;28;97062;-63
2022/08/02 19:18:32;;;;;;;4.55;1.83;;;;;;;29.17;29.10;95932.34;10363475;28;99174;-62
2022/08/02 19:23:38;;;;;;;7.60;6.63;;;;;;;29.07;29.94;95942.28;10367850;28;98938;-62
2022/08/02 19:28:56;;;;;;;2.97;1.27;;;;;;;28.98;30.30;95945.56;10363382;28;97699;-62
2022/08/02 19:34:01;;;;;;;8.25;7.22;;;;;;;28.83;30.79;95955.47;10364029;28;98547;-65
2022/08/02 19:39:10;;;;;;;3.75;1.73;;;;;;;28.65;31.23;95962.22;10369475;28;97292;-63
2022/08/02 19:44:18;;;;;;;2.58;1.67;;;;;;;28.47;30.76;95967.06;10362236;28;97691;-62
2022/08/02 19:49:32;;;;;;;9.90;8.35;;;;;;;28.33;30.94;95966.00;10362711;28;97353;-63
2022/08/02 19:54:43;;;;;;;2.80;1.25;;;;;;;28.07;31.22;95954.38;10361470;28;98457;-62
2022/08/02 19:59:58;;;;;;;5.25;2.92;;;;;;;27.94;31.72;95977.97;10365802;28;98609;-61
2022/08/02 20:05:02;;;;;;;2.37;1.40;;;;;;;27.76;32.11;95978.47;10364787;28;97725;-61
2022/08/02 20:10:19;;;;;;;2.78;2.13;;;;;;;27.49;32.43;95974.84;10371768;28;97020;-61
2022/08/02 20:15:27;;;;;;;3.97;1.65;;;;;;;27.33;32.81;95985.75;10362891;28;98662;-64
2022/08/02 20:20:50;;;;;;;3.93;1.27;;;;;;;27.02;33.51;95993.63;10363951;28;98453;-69
2022/08/02 20:25:54;;;;;;;2.63;1.30;;;;;;;26.74;33.54;95991.00;10364325;28;96863;-64
2022/08/02 20:30:57;;;;;;;5.05;1.40;;;;;;;26.50;34.44;95989.72;10367360;28;98417;-64
2022/08/02 20:36:10;;;;;;;3.65;1.35;;;;;;;26.32;35.31;95989.03;10356610;28;101130;-66
2022/08/02 20:41:18;;;;;;;3.08;1.13;;;;;;;26.24;34.89;96000.19;10370884;28;97477;-65
2022/08/02 20:46:23;;;;;;;6.50;1.40;;;;;;;26.11;34.95;95997.91;10371177;28;96980;-65
2022/08/02 20:51:26;;;;;;;1.33;1.00;;;;;;;26.00;34.70;95987.09;10371759;28;98519;-68
2022/08/02 20:56:37;;;;;;;1.60;1.00;;;;;;;25.96;34.83;95996.69;10372044;28;97820;-69
2022/08/02 21:01:40;;;;;;;1.13;0.95;;;;;;;25.93;34.65;96002.53;10373998;28;97784;-73
2022/08/02 21:06:59;;;;;;;2.65;1.20;;;;;;;25.82;34.82;95998.13;10373698;28;98028;-67
2022/08/02 21:12:03;;;;;;;2.72;1.25;;;;;;;25.66;35.46;95991.78;10375237;28;97535;-67
2022/08/02 21:17:07;;;;;;;3.47;1.23;;;;;;;25.55;36.11;95992.75;10375199;28;98738;-67
2022/08/02 21:22:11;;;;;;;5.40;1.20;;;;;;;25.40;36.11;96004.81;10375575;28;97013;-67
2022/08/02 21:27:15;;;;;;;2.83;1.05;;;;;;;25.27;35.91;96001.69;10377885;28;98083;-68
2022/08/02 21:32:38;;;;;;;;;;;;;;;25.05;35.54;96002.47;10376089;28;97189;-66
2022/08/02 21:37:42;;;;;;;1.97;1.00;;;;;;;24.85;36.62;95990.41;10373389;28;98514;-66
2022/08/02 21:42:48;;;;;;;2.72;1.27;;;;;;;24.69;36.77;96004.56;10375042;28;98248;-66
2022/08/02 21:47:50;;;;;;;3.65;1.20;;;;;;;24.54;37.86;96006.97;10373163;28;99205;-67
2022/08/02 21:52:53;;;;;;;4.35;1.42;;;;;;;24.36;38.19;96005.34;10373434;28;98588;-67
2022/08/02 21:57:57;;;;;;;2.80;1.20;;;;;;;24.23;38.23;96009.13;10371025;28;98653;-66
2022/08/02 22:03:00;;;;;;;1.75;1.20;;;;;;;24.16;38.49;96005.78;10374874;28;96931;-67
2022/08/02 22:08:23;;;;;;;2.97;1.63;;;;;;;24.05;38.79;95997.59;10374144;28;98099;-68
2022/08/02 22:13:29;;;;;;;4.85;1.27;;;;;;;24.11;38.99;96015.31;10374834;28;97260;-66
2022/08/02 22:18:49;;;;;;;2.15;1.20;;;;;;;24.08;38.30;96021.13;10369989;28;98413;-66
2022/08/02 22:23:54;;;;;;;2.50;1.60;;;;;;;24.06;38.78;96019.75;10375248;28;96995;-66
2022/08/02 22:28:59;;;;;;;1.95;1.20;;;;;;;23.96;39.01;96017.66;10373570;28;96860;-66
2022/08/02 22:34:09;;;;;;;2.00;1.10;;;;;;;23.85;39.49;96029.22;10371406;28;97755;-68
2022/08/02 22:39:32;;;;;;;3.45;1.25;;;;;;;23.69;39.79;96033.41;10373845;28;98354;-67
2022/08/02 22:44:36;;;;;;;3.50;1.20;;;;;;;23.59;40.51;96039.34;10373804;28;97141;-70
2022/08/02 22:49:39;;;;;;;;;;;;;;;23.46;39.96;96035.06;10373745;28;98049;-67
2022/08/02 22:54:57;;;;;;;2.33;1.35;;;;;;;23.38;41.00;96032.78;10364336;28;98571;-66
2022/08/02 23:00:05;;;;;;;4.30;1.30;;;;;;;23.26;40.89;96037.28;10377239;28;97037;-66
2022/08/02 23:05:09;;;;;;;3.20;1.35;;;;;;;23.17;41.11;96042.97;10372484;28;98443;-68
2022/08/02 23:10:12;;;;;;;3.15;1.30;;;;;;;22.94;40.92;96019.78;10374294;28;96775;-66
2022/08/02 23:15:16;;;;;;;2.10;1.30;;;;;;;22.95;41.31;96040.06;10368643;28;97799;-65
2022/08/02 23:20:18;;;;;;;;;;;;;;;22.91;41.12;96044.22;10372098;28;97806;-69
2022/08/02 23:25:21;;;;;;;2.70;1.40;;;;;;;22.83;42.33;96035.75;10376406;28;98119;-69
2022/08/02 23:30:26;;;;;;;2.83;1.20;;;;;;;22.80;41.47;96042.34;10377705;28;99450;-71
2022/08/02 23:35:30;;;;;;;1.67;1.30;;;;;;;22.78;41.39;96036.44;10377786;28;96724;-70
2022/08/02 23:40:34;;;;;;;2.08;1.42;;;;;;;22.69;43.12;96037.81;10378305;28;97274;-70
2022/08/02 23:45:45;;;;;;;1.67;1.23;;;;;;;22.55;44.16;96035.38;10380132;28;96981;-69
2022/08/02 23:50:49;;;;;;;2.30;1.15;;;;;;;22.43;43.72;96042.47;10377254;28;96833;-69
2022/08/02 23:55:52;;;;;;;2.55;1.40;;;;;;;22.23;44.79;96040.94;10375668;28;96748;-69
